createdAt,value
2023-01-11T00:00:47.711Z,7.15
2023-01-11T00:03:15.145Z,7.30
2023-01-11T00:05:43.483Z,9.35
2023-01-11T00:08:10.841Z,8.45
2023-01-11T00:13:06.144Z,8.20
2023-01-11T00:15:33.027Z,8.50
2023-01-11T00:17:59.897Z,6.95
2023-01-11T00:20:26.639Z,7.38
2023-01-11T00:22:53.423Z,7.18
2023-01-11T00:25:20.224Z,6.72
2023-01-11T00:27:49.879Z,6.63
2023-01-11T00:32:44.360Z,6.32
2023-01-11T00:35:11.311Z,5.90
2023-01-11T00:37:38.268Z,5.72
2023-01-11T00:40:05.662Z,6.55
2023-01-11T00:42:51.030Z,9.00
2023-01-11T00:45:36.581Z,13.20
2023-01-11T00:48:05.996Z,8.02
2023-01-11T00:50:38.092Z,7.53
2023-01-11T00:53:06.058Z,7.85
2023-01-11T00:55:33.063Z,12.30
2023-01-11T00:58:00.702Z,11.50
2023-01-11T01:00:29.120Z,15.05
2023-01-11T01:02:56.171Z,15.00
2023-01-11T01:05:23.127Z,16.73
2023-01-11T01:07:50.109Z,15.70
2023-01-11T01:10:18.272Z,15.98
2023-01-11T01:13:04.521Z,15.82
2023-01-11T01:15:31.975Z,15.15
2023-01-11T01:17:58.987Z,15.27
2023-01-11T01:20:26.122Z,14.30
2023-01-11T01:22:53.068Z,14.00
2023-01-11T01:25:20.114Z,12.68
2023-01-11T01:27:47.040Z,12.90
2023-01-11T01:30:14.443Z,13.18
2023-01-11T01:32:41.329Z,11.88
2023-01-11T01:35:08.578Z,11.15
2023-01-11T01:37:35.456Z,10.85
2023-01-11T01:40:02.640Z,10.68
2023-01-11T01:42:29.499Z,10.25
2023-01-11T01:45:00.580Z,10.18
2023-01-11T01:47:48.295Z,9.50
2023-01-11T01:50:20.420Z,9.05
2023-01-11T01:52:50.121Z,8.63
2023-01-11T01:57:56.160Z,9.40
2023-01-11T02:00:23.185Z,8.90
2023-01-11T02:02:50.504Z,7.82
2023-01-11T02:05:17.814Z,7.82
2023-01-11T02:07:45.269Z,7.85
2023-01-11T02:10:20.813Z,7.10
2023-01-11T02:13:00.932Z,7.20
2023-01-11T02:15:28.879Z,7.30
2023-01-11T02:17:55.909Z,6.90
2023-01-11T02:21:01.175Z,6.90
2023-01-11T02:23:45.050Z,6.28
2023-01-11T02:26:14.920Z,6.60
2023-01-11T02:28:45.086Z,6.32
2023-01-11T02:31:17.163Z,6.10
2023-01-11T02:34:11.591Z,5.60
2023-01-11T02:37:05.197Z,5.88
2023-01-11T02:40:07.216Z,5.55
2023-01-11T02:43:09.312Z,5.90
2023-01-11T02:45:46.433Z,5.93
2023-01-11T02:48:22.243Z,5.10
2023-01-11T02:50:58.321Z,5.40
2023-01-11T02:53:42.509Z,4.85
2023-01-11T02:56:13.882Z,4.78
2023-01-11T02:58:43.500Z,4.53
2023-01-11T03:03:37.172Z,4.47
2023-01-11T03:06:28.394Z,4.30
2023-01-11T03:09:14.363Z,4.57
2023-01-11T03:12:24.328Z,5.13
2023-01-11T03:15:00.498Z,4.00
2023-01-11T03:17:47.650Z,3.65
2023-01-11T03:20:29.470Z,3.80
2023-01-11T03:23:23.137Z,3.97
2023-01-11T03:29:02.489Z,3.17
2023-01-11T03:31:35.739Z,3.45
2023-01-11T03:34:21.724Z,3.35
2023-01-11T03:36:57.332Z,3.58
2023-01-11T03:39:32.093Z,3.47
2023-01-11T03:44:34.090Z,3.10
2023-01-11T03:47:10.426Z,2.90
2023-01-11T03:49:46.817Z,2.97
2023-01-11T03:52:15.949Z,2.95
2023-01-11T03:54:44.447Z,2.90
2023-01-11T03:57:18.059Z,2.80
2023-01-11T03:59:45.411Z,2.65
2023-01-11T04:02:25.554Z,2.40
2023-01-11T04:04:52.562Z,2.25
2023-01-11T04:07:19.502Z,3.05
2023-01-11T04:09:46.877Z,2.35
2023-01-11T04:12:13.712Z,2.05
2023-01-11T04:14:40.540Z,2.33
2023-01-11T04:17:07.466Z,2.00
2023-01-11T04:19:34.302Z,2.22
2023-01-11T04:22:01.136Z,2.85
2023-01-11T04:24:28.092Z,1.90
2023-01-11T04:26:54.989Z,2.10
2023-01-11T04:29:21.798Z,1.80
2023-01-11T04:31:48.688Z,1.98
2023-01-11T04:34:15.679Z,1.80
2023-01-11T04:36:42.649Z,1.70
2023-01-11T04:39:10.768Z,1.58
2023-01-11T04:41:57.253Z,1.73
2023-01-11T04:44:24.582Z,1.67
2023-01-11T04:46:51.407Z,1.95
2023-01-11T04:49:18.307Z,1.55
2023-01-11T04:51:45.177Z,1.55
2023-01-11T04:54:12.248Z,1.50
2023-01-11T04:56:39.070Z,1.50
2023-01-11T04:59:06.096Z,1.33
2023-01-11T05:01:32.995Z,1.73
2023-01-11T05:03:59.971Z,1.10
2023-01-11T05:06:26.979Z,1.30
2023-01-11T05:08:53.941Z,1.48
2023-01-11T05:11:20.904Z,1.30
2023-01-11T05:13:47.865Z,1.25
2023-01-11T05:16:23.758Z,1.33
2023-01-11T05:18:55.465Z,1.88
2023-01-11T05:21:27.639Z,1.40
2023-01-11T05:23:54.819Z,1.23
2023-01-11T05:26:34.697Z,0.98
2023-01-11T05:29:05.907Z,1.00
2023-01-11T05:31:33.928Z,1.02
2023-01-11T05:34:01.074Z,1.20
2023-01-11T05:36:28.507Z,0.70
2023-01-11T05:38:56.910Z,1.00
2023-01-11T05:41:25.827Z,0.95
2023-01-11T05:44:11.961Z,1.55
2023-01-11T05:46:40.620Z,3.28
2023-01-11T05:49:08.637Z,1.02
2023-01-11T05:51:36.065Z,0.80
2023-01-11T05:54:04.700Z,1.10
2023-01-11T05:56:32.268Z,0.80
2023-01-11T05:58:59.134Z,1.30
2023-01-11T06:01:26.325Z,10.52
2023-01-11T06:03:53.164Z,16.75
2023-01-11T06:06:20.816Z,15.07
2023-01-11T06:08:47.928Z,14.10
2023-01-11T06:11:15.260Z,11.32
2023-01-11T06:13:42.444Z,9.82
2023-01-11T06:16:16.144Z,8.07
2023-01-11T06:18:45.481Z,6.70
2023-01-11T06:21:12.811Z,6.60
2023-01-11T06:26:14.011Z,7.40
2023-01-11T06:31:08.749Z,4.35
2023-01-11T06:33:36.522Z,5.93
2023-01-11T06:36:05.878Z,5.85
2023-01-11T06:38:32.867Z,9.00
2023-01-11T06:41:01.864Z,7.38
2023-01-11T06:43:30.021Z,7.95
2023-01-11T06:45:57.560Z,6.97
2023-01-11T06:48:24.588Z,5.78
2023-01-11T06:50:53.521Z,4.70
2023-01-11T06:53:20.942Z,4.60
2023-01-11T06:55:52.169Z,5.55
2023-01-11T06:58:19.589Z,5.55
2023-01-11T07:00:46.771Z,3.50
2023-01-11T07:03:13.731Z,3.22
2023-01-11T07:05:41.304Z,3.45
2023-01-11T07:08:08.395Z,3.90
2023-01-11T07:10:35.263Z,3.80
2023-01-11T07:13:02.450Z,3.45
2023-01-11T07:15:29.309Z,4.32
2023-01-11T07:17:57.635Z,4.05
2023-01-11T07:20:25.329Z,2.72
2023-01-11T07:22:52.297Z,3.03
2023-01-11T07:25:19.215Z,4.82
2023-01-11T07:27:46.013Z,12.63
2023-01-11T07:30:13.341Z,10.80
2023-01-11T07:32:40.182Z,7.32
2023-01-11T07:35:07.550Z,7.63
2023-01-11T07:37:37.678Z,6.68
2023-01-11T07:40:05.297Z,5.03
2023-01-11T07:42:50.636Z,5.53
2023-01-11T07:45:17.695Z,4.28
2023-01-11T07:47:44.540Z,5.45
2023-01-11T07:50:11.489Z,4.03
2023-01-11T07:52:38.307Z,4.65
2023-01-11T07:55:05.563Z,6.53
2023-01-11T07:57:33.116Z,4.80
2023-01-11T08:00:00.043Z,8.90
2023-01-11T08:02:27.042Z,14.38
2023-01-11T08:04:54.060Z,9.43
2023-01-11T08:07:20.952Z,7.75
2023-01-11T08:09:47.905Z,7.22
2023-01-11T08:12:33.306Z,7.40
2023-01-11T08:15:00.279Z,7.65
2023-01-11T08:17:27.442Z,5.35
2023-01-11T08:19:55.988Z,4.80
2023-01-11T08:22:23.013Z,5.07
2023-01-11T08:24:49.887Z,4.20
2023-01-11T08:27:16.828Z,4.88
2023-01-11T08:29:46.398Z,4.63
2023-01-11T08:32:13.406Z,5.15
2023-01-11T08:34:40.681Z,5.45
2023-01-11T08:37:07.619Z,4.22
2023-01-11T08:39:34.580Z,22.25
2023-01-11T08:42:03.136Z,18.75
2023-01-11T08:44:34.183Z,14.13
2023-01-11T08:47:02.003Z,11.20
2023-01-11T08:49:30.647Z,8.45
2023-01-11T08:51:57.675Z,9.43
2023-01-11T08:54:25.191Z,7.85
2023-01-11T08:56:52.221Z,6.88
2023-01-11T08:59:20.166Z,6.07
2023-01-11T09:01:47.452Z,5.68
2023-01-11T09:04:24.315Z,7.05
2023-01-11T09:06:52.735Z,6.43
2023-01-11T09:09:19.746Z,10.90
2023-01-11T09:11:56.714Z,5.28
2023-01-11T09:14:25.236Z,4.95
2023-01-11T09:16:53.069Z,5.22
2023-01-11T09:19:20.526Z,5.57
2023-01-11T09:21:47.573Z,6.47
2023-01-11T09:24:15.637Z,5.97
2023-01-11T09:26:43.695Z,6.40
2023-01-11T09:29:11.305Z,5.38
2023-01-11T09:31:38.488Z,4.65
2023-01-11T09:34:07.039Z,4.78
2023-01-11T09:36:36.194Z,6.28
2023-01-11T09:39:07.727Z,6.80
2023-01-11T09:42:06.154Z,4.95
2023-01-11T09:44:35.647Z,4.30
2023-01-11T09:47:32.274Z,6.30
2023-01-11T09:50:02.297Z,4.55
2023-01-11T09:52:41.116Z,5.43
2023-01-11T09:55:20.167Z,5.90
2023-01-11T09:58:00.871Z,3.58
2023-01-11T10:00:48.786Z,5.47
2023-01-11T10:03:58.494Z,4.68
2023-01-11T10:18:22.339Z,5.57
2023-01-11T10:19:10.288Z,6.10
2023-01-11T10:21:45.988Z,4.65
2023-01-11T10:24:25.987Z,5.30
2023-01-11T10:26:58.097Z,9.00
2023-01-11T10:30:13.929Z,9.15
2023-01-11T10:33:05.989Z,9.05
2023-01-11T10:36:02.887Z,5.82
2023-01-11T10:38:43.690Z,5.80
2023-01-11T10:41:26.121Z,6.13
2023-01-11T10:44:08.784Z,6.68
2023-01-11T10:46:39.971Z,6.60
2023-01-11T10:49:35.660Z,4.50
2023-01-11T10:52:35.993Z,3.53
2023-01-11T10:55:44.715Z,7.18
2023-01-11T10:58:18.692Z,5.07
2023-01-11T11:01:04.910Z,6.78
2023-01-11T11:03:39.875Z,7.00
2023-01-11T11:06:08.655Z,5.97
2023-01-11T11:08:56.416Z,6.33
2023-01-11T11:11:34.086Z,5.63
2023-01-11T11:14:08.255Z,7.18
2023-01-11T11:16:53.688Z,4.55
2023-01-11T11:19:23.829Z,5.95
2023-01-11T11:21:52.356Z,6.95
2023-01-11T11:24:32.351Z,6.55
2023-01-11T11:27:15.489Z,8.73
2023-01-11T11:29:44.231Z,5.60
2023-01-11T11:32:36.764Z,6.73
2023-01-11T11:35:04.759Z,6.20
2023-01-11T11:37:36.341Z,4.68
2023-01-11T11:40:03.869Z,5.80
2023-01-11T11:42:30.792Z,5.60
2023-01-11T11:45:09.628Z,4.65
2023-01-11T11:47:37.451Z,4.78
2023-01-11T11:50:43.138Z,6.40
2023-01-11T11:53:43.203Z,7.47
2023-01-11T11:56:21.461Z,5.57
2023-01-11T11:58:48.684Z,5.18
2023-01-11T12:01:36.692Z,6.07
2023-01-11T12:04:14.540Z,4.97
2023-01-11T12:06:42.213Z,6.68
2023-01-11T12:09:30.476Z,5.80
2023-01-11T12:11:57.680Z,4.05
2023-01-11T12:14:28.391Z,5.60
2023-01-11T12:16:55.311Z,5.50
2023-01-11T12:19:40.278Z,4.75
2023-01-11T12:22:19.444Z,5.65
2023-01-11T12:24:47.916Z,5.57
2023-01-11T12:27:40.965Z,7.55
2023-01-11T12:30:13.846Z,7.30
2023-01-11T12:33:08.393Z,4.80
2023-01-11T12:35:44.844Z,7.07
2023-01-11T12:38:46.685Z,5.10
2023-01-11T12:41:44.099Z,4.38
2023-01-11T12:44:35.216Z,4.32
2023-01-11T12:47:27.925Z,7.72
2023-01-11T12:50:17.974Z,5.32
2023-01-11T12:52:59.948Z,5.13
2023-01-11T12:55:54.606Z,6.03
2023-01-11T12:58:29.158Z,5.80
2023-01-11T13:01:15.278Z,7.95
2023-01-11T13:03:45.472Z,6.07
2023-01-11T13:06:18.971Z,7.57
2023-01-11T13:09:04.165Z,4.82
2023-01-11T13:11:51.506Z,4.32
2023-01-11T13:14:45.801Z,4.75
2023-01-11T13:17:27.617Z,4.28
2023-01-11T13:20:06.771Z,3.83
2023-01-11T13:22:38.521Z,4.57
2023-01-11T13:25:17.638Z,4.82
2023-01-11T13:27:46.177Z,4.53
2023-01-11T13:30:14.783Z,6.30
2023-01-11T13:32:51.507Z,8.43
2023-01-11T13:35:22.003Z,9.52
2023-01-11T13:38:00.594Z,9.32
2023-01-11T13:40:40.057Z,9.95
2023-01-11T13:43:12.158Z,8.95
2023-01-11T13:46:32.332Z,7.57
2023-01-11T13:49:30.986Z,6.15
2023-01-11T13:52:13.795Z,4.63
2023-01-11T13:54:52.562Z,4.32
2023-01-11T13:57:52.006Z,4.97
2023-01-11T14:00:42.786Z,5.40
2023-01-11T14:03:18.851Z,4.50
2023-01-11T14:05:59.137Z,4.53
2023-01-11T14:08:57.928Z,6.65
2023-01-11T14:11:34.784Z,7.15
2023-01-11T14:14:27.297Z,8.75
2023-01-11T14:17:05.882Z,7.07
2023-01-11T14:19:57.459Z,6.75
2023-01-11T14:23:00.630Z,6.45
2023-01-11T14:25:32.024Z,6.28
2023-01-11T14:28:07.541Z,6.68
2023-01-11T14:30:56.730Z,5.85
2023-01-11T14:34:11.007Z,6.82
2023-01-11T14:37:10.489Z,10.15
2023-01-11T14:39:49.365Z,8.30
2023-01-11T14:42:44.196Z,7.18
2023-01-11T14:45:17.244Z,6.72
2023-01-11T14:50:52.644Z,5.65
2023-01-11T14:53:23.738Z,6.20
2023-01-11T14:55:50.765Z,4.85
2023-01-11T14:58:31.756Z,5.22
2023-01-11T15:00:58.646Z,4.13
2023-01-11T15:03:39.311Z,6.45
2023-01-11T15:06:16.543Z,6.00
2023-01-11T15:08:55.082Z,4.10
2023-01-11T15:11:42.352Z,7.72
2023-01-11T15:14:28.818Z,5.45
2023-01-11T15:17:17.465Z,4.88
2023-01-11T15:19:44.798Z,3.50
2023-01-11T15:22:28.723Z,5.55
2023-01-11T15:24:58.904Z,4.00
2023-01-11T15:27:36.738Z,3.45
2023-01-11T15:30:06.696Z,3.83
2023-01-11T15:32:35.619Z,4.53
2023-01-11T15:35:35.264Z,4.07
2023-01-11T15:38:17.638Z,3.78
2023-01-11T15:40:46.566Z,3.15
2023-01-11T15:43:40.788Z,3.65
2023-01-11T15:46:41.571Z,4.60
2023-01-11T15:49:52.830Z,2.83
2023-01-11T15:52:50.429Z,3.75
2023-01-11T15:56:04.762Z,3.88
2023-01-11T15:59:12.054Z,3.72
2023-01-11T16:02:08.093Z,3.63
2023-01-11T16:04:41.017Z,3.38
2023-01-11T16:07:40.461Z,4.25
2023-01-11T16:10:19.184Z,3.85
2023-01-11T16:13:10.657Z,5.43
2023-01-11T16:15:43.585Z,2.03
2023-01-11T16:18:18.032Z,4.03
2023-01-11T16:21:09.342Z,4.50
2023-01-11T16:23:36.361Z,3.20
2023-01-11T16:26:05.019Z,3.80
2023-01-11T16:28:31.863Z,4.03
2023-01-11T16:31:04.719Z,4.50
2023-01-11T16:33:33.365Z,3.15
2023-01-11T16:36:21.218Z,4.63
2023-01-11T16:38:55.860Z,3.05
2023-01-11T16:41:24.244Z,3.65
2023-01-11T16:44:09.650Z,3.65
2023-01-11T16:47:04.570Z,4.63
2023-01-11T16:49:31.459Z,2.47
2023-01-11T16:51:59.954Z,4.22
2023-01-11T16:54:32.617Z,4.65
2023-01-11T16:57:01.443Z,2.83
2023-01-11T16:59:30.884Z,4.80
2023-01-11T17:01:59.944Z,5.18
2023-01-11T17:04:35.712Z,2.50
2023-01-11T17:07:13.071Z,4.38
2023-01-11T17:09:42.533Z,3.70
2023-01-11T17:12:21.595Z,4.30
2023-01-11T17:15:20.927Z,3.42
2023-01-11T17:17:47.825Z,3.85
2023-01-11T17:20:22.957Z,4.15
2023-01-11T17:22:53.726Z,4.55
2023-01-11T17:25:24.896Z,2.45
2023-01-11T17:28:07.048Z,3.72
2023-01-11T17:33:02.320Z,3.35
2023-01-11T17:35:36.574Z,4.43
2023-01-11T17:38:06.382Z,4.43
2023-01-11T17:40:36.875Z,7.53
2023-01-11T17:43:52.367Z,4.03
2023-01-11T17:46:23.555Z,3.75
2023-01-11T17:48:55.579Z,3.75
2023-01-11T17:51:41.259Z,5.95
2023-01-11T17:54:19.964Z,5.25
2023-01-11T17:56:56.252Z,4.70
2023-01-11T17:59:28.162Z,4.38
2023-01-11T18:02:00.416Z,5.30
2023-01-11T18:04:28.084Z,4.53
2023-01-11T18:09:36.719Z,2.50
2023-01-11T18:12:22.641Z,4.35
2023-01-11T18:14:54.659Z,3.65
2023-01-11T18:17:36.520Z,2.03
2023-01-11T18:20:15.678Z,7.40
2023-01-11T18:22:56.562Z,8.77
2023-01-11T18:25:27.407Z,4.30
2023-01-11T18:28:18.844Z,3.90
2023-01-11T18:30:57.825Z,3.80
2023-01-11T18:33:26.707Z,4.13
2023-01-11T18:35:57.898Z,3.23
2023-01-11T18:38:29.915Z,4.53
2023-01-11T18:40:58.545Z,3.85
2023-01-11T18:43:30.200Z,5.47
2023-01-11T18:45:57.459Z,3.22
2023-01-11T18:48:24.460Z,6.05
2023-01-11T18:50:52.161Z,4.78
2023-01-11T18:53:19.093Z,4.45
2023-01-11T18:55:46.501Z,4.93
2023-01-11T18:58:13.922Z,5.72
2023-01-11T19:00:41.681Z,4.88
2023-01-11T19:03:10.422Z,3.85
2023-01-11T19:05:37.256Z,2.63
2023-01-11T19:08:04.213Z,4.20
2023-01-11T19:10:31.085Z,4.15
2023-01-11T19:12:58.048Z,6.32
2023-01-11T19:15:24.974Z,4.20
2023-01-11T19:17:51.871Z,4.07
2023-01-11T19:20:18.804Z,5.43
2023-01-11T19:22:45.676Z,3.53
2023-01-11T19:25:12.714Z,4.63
2023-01-11T19:27:39.581Z,5.38
2023-01-11T19:30:07.101Z,3.03
2023-01-11T19:32:33.975Z,5.70
2023-01-11T19:35:01.557Z,3.45
2023-01-11T19:37:30.122Z,5.35
2023-01-11T19:39:57.064Z,3.78
2023-01-11T19:42:24.023Z,2.53
2023-01-11T19:44:51.508Z,2.80
2023-01-11T19:47:18.424Z,4.75
2023-01-11T19:49:45.346Z,3.55
2023-01-11T19:52:18.993Z,2.28
2023-01-11T19:54:46.778Z,2.92
2023-01-11T19:57:15.866Z,2.92
2023-01-11T19:59:42.866Z,4.15
2023-01-11T20:02:12.638Z,5.28
2023-01-11T20:07:07.978Z,2.90
2023-01-11T20:09:37.639Z,3.30
2023-01-11T20:14:32.374Z,5.10
2023-01-11T20:16:59.465Z,5.90
2023-01-11T20:19:26.511Z,6.93
2023-01-11T20:21:53.461Z,5.03
2023-01-11T20:24:20.419Z,7.68
2023-01-11T20:26:47.477Z,5.28
2023-01-11T20:29:14.454Z,5.22
2023-01-11T20:31:41.556Z,4.38
2023-01-11T20:34:11.488Z,4.18
2023-01-11T20:36:38.451Z,2.58
2023-01-11T20:39:05.729Z,3.40
2023-01-11T20:41:47.644Z,5.43
2023-01-11T20:44:16.184Z,2.05
2023-01-11T20:46:44.059Z,2.55
2023-01-11T20:49:12.183Z,2.95
2023-01-11T20:51:39.139Z,3.70
2023-01-11T20:54:06.684Z,2.78
2023-01-11T20:56:33.846Z,2.90
2023-01-11T20:59:04.064Z,3.33
2023-01-11T21:01:31.308Z,3.38
2023-01-11T21:04:08.878Z,3.05
2023-01-11T21:06:38.034Z,4.20
2023-01-11T21:09:05.667Z,4.72
2023-01-11T21:11:32.928Z,8.02
2023-01-11T21:14:01.387Z,4.95
2023-01-11T21:16:29.222Z,4.85
2023-01-11T21:18:58.612Z,4.38
2023-01-11T21:21:25.973Z,3.33
2023-01-11T21:23:58.088Z,3.85
2023-01-11T21:26:25.965Z,3.35
2023-01-11T21:29:00.891Z,3.50
2023-01-11T21:31:32.777Z,2.83
2023-01-11T21:33:59.949Z,5.22
2023-01-11T21:36:28.246Z,3.35
2023-01-11T21:38:56.903Z,3.35
2023-01-11T21:41:44.569Z,2.47
2023-01-11T21:44:15.487Z,2.95
2023-01-11T21:46:42.903Z,4.15
2023-01-11T21:49:10.597Z,4.13
2023-01-11T21:51:37.934Z,3.40
2023-01-11T21:54:06.701Z,3.20
2023-01-11T21:56:33.634Z,5.00
2023-01-11T21:59:00.791Z,10.10
2023-01-11T22:01:28.092Z,4.68
2023-01-11T22:03:55.184Z,5.25
2023-01-11T22:06:22.183Z,5.03
2023-01-11T22:08:49.208Z,3.70
2023-01-11T22:11:17.045Z,3.50
2023-01-11T22:13:44.432Z,3.22
2023-01-11T22:16:16.808Z,2.50
2023-01-11T22:18:45.107Z,3.80
2023-01-11T22:23:46.924Z,4.30
2023-01-11T22:26:14.824Z,4.60
2023-01-11T22:29:01.279Z,3.80
2023-01-11T22:31:29.264Z,3.22
2023-01-11T22:33:56.310Z,5.07
2023-01-11T22:36:24.454Z,4.57
2023-01-11T22:38:51.978Z,2.97
2023-01-11T22:41:18.866Z,3.72
2023-01-11T22:43:46.099Z,2.25
2023-01-11T22:46:15.546Z,5.47
2023-01-11T22:48:42.632Z,3.97
2023-01-11T22:51:10.880Z,3.17
2023-01-11T22:53:38.793Z,3.35
2023-01-11T22:56:06.429Z,2.40
2023-01-11T22:58:33.285Z,2.67
2023-01-11T23:01:13.141Z,3.22
2023-01-11T23:03:40.662Z,3.95
2023-01-11T23:06:08.691Z,4.35
2023-01-11T23:08:41.515Z,4.40
2023-01-11T23:11:10.170Z,2.80
2023-01-11T23:13:52.542Z,2.70
2023-01-11T23:16:19.880Z,3.50
2023-01-11T23:18:48.379Z,4.05
2023-01-11T23:21:16.585Z,3.30
2023-01-11T23:23:43.947Z,3.58
2023-01-11T23:26:17.823Z,3.28
2023-01-11T23:28:45.838Z,3.63
2023-01-11T23:31:22.604Z,3.97
2023-01-11T23:34:01.537Z,2.05
2023-01-11T23:36:31.308Z,2.33
2023-01-11T23:41:44.476Z,4.47
2023-01-11T23:44:13.894Z,2.88
2023-01-11T23:47:00.076Z,2.95
2023-01-11T23:49:27.563Z,2.63
2023-01-11T23:51:55.225Z,2.65
2023-01-11T23:54:22.568Z,2.85
2023-01-11T23:56:49.539Z,2.83
2023-01-11T23:59:16.439Z,3.75
